Time;durP1;ratioP1;P1;durP2;ratioP2;P2;SDS_P1;SDS_P2;PMS_P1;PMS_P2;Temp;Humidity;BMP_temperature;BMP_pressure;BME280_temperature;BME280_humidity;BME280_pressure;Samples;Min_cycle;Max_cycle;Signal;HPM_P1;HPM_P2
2024/01/19 00:00:30;;;;;;;60.70;31.30;;;;;;;-1.16;100.00;100098.00;5031510;28;20056;-72
2024/01/19 00:02:59;;;;;;;59.72;31.67;;;;;;;-1.18;100.00;100101.47;5038725;28;20054;-74
2024/01/19 00:05:30;;;;;;;59.30;31.58;;;;;;;-1.20;100.00;100114.47;4992749;28;20044;-74
2024/01/19 00:08:02;;;;;;;60.63;31.75;;;;;;;-1.25;100.00;100113.59;5037531;28;20687;-74
2024/01/19 00:10:32;;;;;;;60.65;32.22;;;;;;;-1.28;100.00;100120.56;5034483;28;20045;-71
2024/01/19 00:13:01;;;;;;;;;;;;;;;-1.29;100.00;100129.22;5017636;28;20049;-72
2024/01/19 00:15:34;;;;;;;60.75;30.73;;;;;;;-1.33;100.00;100128.38;5038096;28;19925;-71
2024/01/19 00:18:10;;;;;;;;;;;;;;;-1.35;100.00;100135.28;5032126;28;20043;-72
2024/01/19 00:20:46;;;;;;;;;;;;;;;-1.34;100.00;100133.56;5041597;28;19921;-70
2024/01/19 00:23:15;;;;;;;55.90;28.42;;;;;;;-1.36;100.00;100132.69;5024334;28;19920;-72
2024/01/19 00:25:45;;;;;;;61.42;30.23;;;;;;;-1.36;100.00;100143.94;5028438;28;20153;-73
2024/01/19 00:28:13;;;;;;;57.53;29.55;;;;;;;-1.37;100.00;100131.84;5049050;28;20053;-72
2024/01/19 00:30:43;;;;;;;57.60;29.77;;;;;;;-1.33;100.00;100145.69;5017889;28;20054;-72
2024/01/19 00:33:11;;;;;;;58.67;29.92;;;;;;;-1.54;100.00;100142.25;5041480;28;20105;-72
2024/01/19 00:35:39;;;;;;;56.33;29.83;;;;;;;-1.55;100.00;100155.25;5026870;28;20038;-74
2024/01/19 00:38:10;;;;;;;61.05;29.83;;;;;;;-1.53;100.00;100161.31;5026229;28;20381;-71
2024/01/19 00:40:39;;;;;;;61.88;30.33;;;;;;;-1.54;100.00;100154.38;5027567;28;20065;-72
2024/01/19 00:43:08;;;;;;;50.22;27.92;;;;;;;-1.54;100.00;100159.56;5016683;28;20049;-71
2024/01/19 00:45:38;;;;;;;57.75;29.20;;;;;;;-1.61;100.00;100163.06;5026065;28;20128;-74
2024/01/19 00:48:08;;;;;;;56.60;29.70;;;;;;;-1.64;100.00;100163.94;5017680;28;20041;-72
2024/01/19 00:50:37;;;;;;;45.78;23.73;;;;;;;-1.67;100.00;100160.47;5038889;28;20052;-72
2024/01/19 00:53:06;;;;;;;56.97;29.98;;;;;;;-1.62;100.00;100161.34;5015546;28;20413;-71
2024/01/19 00:55:36;;;;;;;53.63;30.25;;;;;;;-1.66;100.00;100163.06;5006467;28;20136;-73
2024/01/19 00:58:07;;;;;;;57.55;29.77;;;;;;;-1.75;100.00;100159.63;5023527;28;20054;-74
2024/01/19 01:00:35;;;;;;;;;;;;;;;-1.72;100.00;100175.16;5024294;28;20609;-71
2024/01/19 01:03:03;;;;;;;58.17;28.25;;;;;;;-1.88;100.00;100144.03;5032620;28;19932;-70
2024/01/19 01:05:31;;;;;;;58.25;29.33;;;;;;;-1.73;100.00;100182.09;5023529;28;20054;-72
2024/01/19 01:08:02;;;;;;;52.70;29.23;;;;;;;-1.82;100.00;100180.38;5039748;28;20049;-71
2024/01/19 01:10:30;;;;;;;57.90;30.15;;;;;;;-1.88;100.00;100174.31;5024977;28;20106;-71
2024/01/19 01:13:02;;;;;;;58.30;29.30;;;;;;;-1.83;100.00;100188.16;5007302;28;20132;-72
2024/01/19 01:15:31;;;;;;;58.92;29.80;;;;;;;-1.78;100.00;100194.22;5025820;28;20207;-71
2024/01/19 01:18:01;;;;;;;57.28;30.35;;;;;;;-1.82;100.00;100205.47;5039883;28;20056;-72
2024/01/19 01:20:32;;;;;;;58.63;30.85;;;;;;;-1.89;100.00;100206.34;5018225;28;20037;-71
2024/01/19 01:23:00;;;;;;;57.33;30.42;;;;;;;-1.90;100.00;100205.47;5018366;28;20054;-71
2024/01/19 01:25:30;;;;;;;61.47;29.70;;;;;;;-1.89;100.00;100214.97;5023613;28;20052;-71
2024/01/19 01:27:59;;;;;;;63.28;31.67;;;;;;;-1.92;100.00;100215.00;5040058;28;20049;-73
2024/01/19 01:30:31;;;;;;;57.45;29.33;;;;;;;-1.91;100.00;100232.28;5031280;28;20048;-73
2024/01/19 01:32:59;;;;;;;59.05;30.33;;;;;;;-1.89;100.00;100234.91;5031931;28;20072;-72
2024/01/19 01:35:30;;;;;;;60.13;30.98;;;;;;;-1.91;100.00;100237.50;5023060;28;20054;-72
2024/01/19 01:38:00;;;;;;;59.55;29.60;;;;;;;-1.97;100.00;100232.28;5038737;28;20569;-72
2024/01/19 01:40:31;;;;;;;61.67;29.52;;;;;;;-2.06;100.00;100231.41;5045347;28;20482;-70
2024/01/19 01:43:02;;;;;;;58.22;29.20;;;;;;;-1.97;100.00;100253.03;5022597;28;20508;-73
2024/01/19 01:45:33;;;;;;;63.50;29.95;;;;;;;-1.99;100.00;100265.13;5043459;28;20088;-73
2024/01/19 01:48:01;;;;;;;;;;;;;;;-1.98;100.00;100266.88;5027785;28;20050;-72
2024/01/19 01:50:30;;;;;;;57.85;27.73;;;;;;;-1.98;100.00;100272.06;5025604;28;20612;-72
2024/01/19 01:52:59;;;;;;;57.03;29.33;;;;;;;-2.04;100.00;100273.78;5019257;28;20041;-70
2024/01/19 01:55:28;;;;;;;63.38;29.83;;;;;;;-1.98;100.00;100278.97;5039382;28;20081;-74
2024/01/19 01:57:57;;;;;;;56.30;29.20;;;;;;;-1.96;100.00;100292.84;5031813;28;20114;-72
2024/01/19 02:00:31;;;;;;;56.28;29.00;;;;;;;-2.01;100.00;100290.22;5024770;28;20057;-70
2024/01/19 02:03:01;;;;;;;61.50;28.80;;;;;;;-1.98;100.00;100297.16;5039384;28;20048;-72
2024/01/19 02:05:32;;;;;;;58.60;29.52;;;;;;;-2.04;100.00;100289.34;5017835;28;20053;-72
2024/01/19 02:08:01;;;;;;;57.60;28.98;;;;;;;-2.05;100.00;100304.06;5023474;28;20174;-74
2024/01/19 02:10:31;;;;;;;54.47;28.73;;;;;;;-2.08;100.00;100296.28;5010085;28;20057;-71
2024/01/19 02:12:59;;;;;;;57.30;28.70;;;;;;;-2.06;100.00;100304.94;5019316;28;20107;-72
2024/01/19 02:15:29;;;;;;;59.53;29.40;;;;;;;-2.23;100.00;100275.47;5021475;28;20136;-71
2024/01/19 02:17:58;;;;;;;56.45;28.65;;;;;;;-2.06;100.00;100310.13;5026866;28;20199;-71
2024/01/19 02:20:28;;;;;;;56.85;28.45;;;;;;;-2.07;100.00;100303.19;5029133;28;20033;-73
2024/01/19 02:22:56;;;;;;;54.55;26.73;;;;;;;-2.00;100.00;100312.72;5037603;28;20045;-72
2024/01/19 02:25:26;;;;;;;50.35;26.55;;;;;;;-2.10;100.00;100297.13;5030005;28;20057;-71
2024/01/19 02:27:56;;;;;;;50.22;25.85;;;;;;;-2.12;100.00;100313.56;5023522;28;20041;-71
2024/01/19 02:30:24;;;;;;;40.03;20.70;;;;;;;-2.28;100.00;100306.59;5038943;28;20045;-72
2024/01/19 02:32:53;;;;;;;53.33;26.45;;;;;;;-2.37;100.00;100323.84;5022513;28;20034;-72
2024/01/19 02:35:22;;;;;;;55.05;26.55;;;;;;;-2.52;100.00;100324.66;5018996;28;20037;-71
2024/01/19 02:37:52;;;;;;;52.77;27.10;;;;;;;-2.69;100.00;100318.50;5012691;28;20053;-71
2024/01/19 02:40:20;;;;;;;57.40;27.60;;;;;;;-2.73;100.00;100321.94;5037248;28;20472;-72
2024/01/19 02:42:50;;;;;;;55.75;27.52;;;;;;;-2.78;100.00;100321.03;4983543;28;20373;-71
2024/01/19 02:45:18;;;;;;;52.42;26.27;;;;;;;-3.05;100.00;100288.06;5003419;28;20073;-74
2024/01/19 02:47:55;;;;;;;57.28;28.48;;;;;;;-2.94;100.00;100313.16;5012571;28;20446;-75
2024/01/19 02:50:24;;;;;;;58.55;28.10;;;;;;;-3.04;100.00;100306.22;5023343;28;20052;-70
2024/01/19 02:52:53;;;;;;;45.97;20.83;;;;;;;-3.00;100.00;100335.59;5023560;28;20042;-72
2024/01/19 02:55:24;;;;;;;57.13;28.10;;;;;;;-3.12;100.00;100319.94;5018152;28;20506;-71
2024/01/19 02:57:53;;;;;;;54.45;28.45;;;;;;;-3.25;100.00;100309.50;5019438;28;20604;-73
2024/01/19 03:00:22;;;;;;;59.60;28.42;;;;;;;-3.13;100.00;100323.41;5027825;28;20041;-71
2024/01/19 03:02:50;;;;;;;56.90;27.83;;;;;;;-3.11;100.00;100337.22;5005270;28;20064;-72
2024/01/19 03:05:21;;;;;;;41.10;20.88;;;;;;;-3.14;100.00;100327.69;5015344;28;20042;-74
2024/01/19 03:07:50;;;;;;;57.40;26.65;;;;;;;-3.20;100.00;100328.56;5026127;28;20057;-73
2024/01/19 03:10:19;;;;;;;55.20;26.35;;;;;;;-3.16;100.00;100336.34;5019183;28;20042;-72
2024/01/19 03:12:47;;;;;;;52.53;26.50;;;;;;;-3.21;100.00;100326.81;5020232;28;20045;-71
2024/01/19 03:15:20;;;;;;;53.25;26.35;;;;;;;-3.13;100.00;100320.81;5032331;28;20061;-73
2024/01/19 03:17:48;;;;;;;52.60;26.60;;;;;;;-3.00;100.00;100331.28;5026737;28;20493;-71
2024/01/19 03:20:19;;;;;;;51.70;25.55;;;;;;;-2.88;100.00;100341.72;5023642;28;20111;-71
2024/01/19 03:22:50;;;;;;;54.05;25.67;;;;;;;-2.91;100.00;100326.16;5026152;28;20570;-71
2024/01/19 03:25:20;;;;;;;54.05;26.38;;;;;;;-2.91;100.00;100335.66;5038376;28;20037;-72
2024/01/19 03:27:49;;;;;;;50.40;26.13;;;;;;;-2.84;100.00;100335.72;5039401;28;20056;-72
2024/01/19 03:30:19;;;;;;;56.53;26.08;;;;;;;-2.87;100.00;100327.91;5043118;28;20177;-72
2024/01/19 03:32:47;;;;;;;45.28;24.38;;;;;;;-2.69;100.00;100344.44;5040400;28;20052;-71
2024/01/19 03:35:17;;;;;;;48.95;24.42;;;;;;;-2.65;100.00;100352.22;5033312;28;20049;-71
2024/01/19 03:37:46;;;;;;;47.55;23.95;;;;;;;-2.59;100.00;100347.06;5022105;28;20133;-72
2024/01/19 03:40:17;;;;;;;45.67;22.92;;;;;;;-2.45;100.00;100367.88;5022659;28;20048;-72
2024/01/19 03:42:48;;;;;;;43.25;22.92;;;;;;;-2.54;100.00;100362.66;5020538;28;20148;-71
2024/01/19 03:45:19;;;;;;;50.50;23.63;;;;;;;-2.66;100.00;100354.78;5016280;28;20055;-71
2024/01/19 03:47:47;;;;;;;46.83;22.88;;;;;;;-2.64;100.00;100360.84;5035964;28;20053;-71
2024/01/19 03:50:18;;;;;;;51.53;23.08;;;;;;;-2.68;100.00;100375.53;5037850;28;20053;-70
2024/01/19 03:52:49;;;;;;;46.93;22.87;;;;;;;-2.84;100.00;100364.22;5020955;28;20132;-72
2024/01/19 03:55:21;;;;;;;45.63;23.20;;;;;;;-2.78;100.00;100378.03;5015583;28;20522;-72
2024/01/19 03:57:49;;;;;;;45.65;23.05;;;;;;;-2.82;100.00;100365.06;5040244;28;20073;-73
2024/01/19 04:00:20;;;;;;;44.78;21.85;;;;;;;-2.70;100.00;100369.47;5038160;28;20049;-70
2024/01/19 04:02:48;;;;;;;42.95;20.80;;;;;;;-2.69;100.00;100371.22;5026591;28;20434;-73
2024/01/19 04:05:19;;;;;;;40.92;21.42;;;;;;;-2.71;100.00;100379.84;5018685;28;20104;-72
2024/01/19 04:07:47;;;;;;;42.10;21.73;;;;;;;-2.75;100.00;100368.56;5035483;28;20081;-72
2024/01/19 04:10:15;;;;;;;38.58;20.63;;;;;;;-2.77;100.00;100380.66;5041366;28;20482;-71
2024/01/19 04:12:44;;;;;;;40.70;20.45;;;;;;;-2.78;100.00;100383.22;5025836;28;20053;-72
2024/01/19 04:15:12;;;;;;;43.53;22.13;;;;;;;-2.74;100.00;100391.03;5022042;28;20052;-72
2024/01/19 04:17:44;;;;;;;44.30;20.98;;;;;;;-2.84;100.00;100389.25;5040316;28;21318;-72
2024/01/19 04:20:13;;;;;;;42.83;21.30;;;;;;;-3.00;100.00;100393.47;5023966;28;20045;-71
2024/01/19 04:22:43;;;;;;;42.30;21.63;;;;;;;-3.17;100.00;100396.78;5023809;28;20045;-71
2024/01/19 04:25:13;;;;;;;39.15;21.45;;;;;;;-3.24;100.00;100408.78;5031157;28;20042;-73
2024/01/19 04:27:41;;;;;;;39.15;20.85;;;;;;;-3.37;100.00;100419.88;5024387;28;20072;-73
2024/01/19 04:30:12;;;;;;;40.85;20.95;;;;;;;-3.56;100.00;100404.16;5025822;28;20360;-71
2024/01/19 04:32:42;;;;;;;42.28;22.60;;;;;;;-3.61;100.00;100425.66;5034916;28;20099;-72
2024/01/19 04:35:13;;;;;;;43.53;21.52;;;;;;;-3.72;100.00;100417.81;5035037;28;20133;-74
2024/01/19 04:37:43;;;;;;;45.03;23.63;;;;;;;-3.73;100.00;100428.13;5028472;28;20038;-72
2024/01/19 04:40:12;;;;;;;48.83;22.58;;;;;;;-3.78;100.00;100427.22;5039929;28;20069;-71
2024/01/19 04:42:40;;;;;;;46.63;22.80;;;;;;;-3.84;100.00;100434.91;5024949;28;20112;-71
2024/01/19 04:45:09;;;;;;;44.17;22.85;;;;;;;-4.00;100.00;100414.03;5031876;28;20045;-75
2024/01/19 04:47:38;;;;;;;48.60;22.90;;;;;;;-4.02;100.00;100420.91;5025683;28;20048;-73
2024/01/19 04:50:09;;;;;;;48.15;23.63;;;;;;;-4.00;100.00;100429.56;5023509;28;20042;-71
2024/01/19 04:52:38;;;;;;;50.38;23.75;;;;;;;-4.06;100.00;100434.63;5026109;28;20151;-72
2024/01/19 04:55:07;;;;;;;44.53;24.52;;;;;;;-4.02;100.00;100440.72;5031131;28;20054;-72
2024/01/19 04:57:36;;;;;;;49.45;23.20;;;;;;;-4.03;100.00;100442.44;5030223;28;20049;-72
2024/01/19 05:00:05;;;;;;;49.05;23.63;;;;;;;-4.03;100.00;100451.91;5022408;28;20103;-71
2024/01/19 05:02:34;;;;;;;47.00;24.05;;;;;;;-4.09;100.00;100447.53;5023634;28;20418;-73
2024/01/19 05:05:03;;;;;;;44.20;22.23;;;;;;;-4.06;100.00;100449.28;5018027;28;20518;-72
2024/01/19 05:07:39;;;;;;;48.35;21.98;;;;;;;-3.96;100.00;100448.56;5036334;28;23486;-72
2024/01/19 05:10:10;;;;;;;45.20;22.88;;;;;;;-3.99;100.00;100459.75;5027277;28;20049;-72
2024/01/19 05:12:41;;;;;;;45.88;23.42;;;;;;;-4.05;100.00;100467.41;5024938;28;20055;-73
2024/01/19 05:15:09;;;;;;;;;;;;;;;-4.08;100.00;100466.50;5021501;28;20045;-72
2024/01/19 05:17:38;;;;;;;41.75;21.52;;;;;;;-4.16;100.00;100452.63;5030192;28;19944;-72
2024/01/19 05:20:08;;;;;;;50.15;23.15;;;;;;;-4.17;100.00;100469.84;5023923;28;20045;-72
2024/01/19 05:22:39;;;;;;;48.33;22.15;;;;;;;-4.17;100.00;100471.56;5021965;28;20042;-71
2024/01/19 05:25:08;;;;;;;54.28;24.60;;;;;;;-4.24;100.00;100468.88;5037217;28;20045;-71
2024/01/19 05:27:36;;;;;;;50.25;23.95;;;;;;;-4.32;100.00;100467.06;5027937;28;20056;-71
2024/01/19 05:30:08;;;;;;;48.58;23.15;;;;;;;-4.22;100.00;100483.53;5027364;28;20045;-71
2024/01/19 05:32:37;;;;;;;49.92;24.80;;;;;;;-4.21;100.00;100482.69;5028588;28;20046;-71
2024/01/19 05:35:06;;;;;;;49.33;24.17;;;;;;;-4.23;100.00;100480.09;5038227;28;20056;-71
2024/01/19 05:37:38;;;;;;;53.42;24.33;;;;;;;-4.37;100.00;100460.94;5013317;28;20038;-71
2024/01/19 05:40:10;;;;;;;47.97;23.17;;;;;;;-4.19;100.00;100493.94;5025974;28;20041;-72
2024/01/19 05:42:40;;;;;;;48.85;22.73;;;;;;;-4.29;100.00;100488.66;5029552;28;20037;-71
2024/01/19 05:45:11;;;;;;;49.40;23.40;;;;;;;-4.20;100.00;100515.47;5025543;28;20045;-71
2024/01/19 05:47:42;;;;;;;52.80;24.48;;;;;;;-4.36;100.00;100483.34;5035102;28;20565;-70
2024/01/19 05:50:15;;;;;;;52.95;24.13;;;;;;;-4.25;100.00;100508.50;5032571;28;20144;-73
2024/01/19 05:52:49;;;;;;;50.42;22.60;;;;;;;-4.25;100.00;100505.91;5033573;28;20049;-71
2024/01/19 05:55:18;;;;;;;42.63;22.60;;;;;;;-4.21;100.00;100511.16;5031481;28;22195;-73
2024/01/19 05:57:46;;;;;;;45.53;22.30;;;;;;;-4.20;100.00;100508.59;5052427;28;20056;-73
2024/01/19 06:00:18;;;;;;;45.42;22.63;;;;;;;-4.17;100.00;100518.97;5032010;28;20099;-71
2024/01/19 06:02:47;;;;;;;45.08;22.85;;;;;;;-4.14;100.00;100521.63;5047958;28;20997;-71
2024/01/19 06:05:18;;;;;;;49.15;23.45;;;;;;;-4.14;100.00;100524.19;5014645;28;20057;-72
2024/01/19 06:07:51;;;;;;;49.38;24.08;;;;;;;-4.13;100.00;100527.66;5029268;28;20046;-73
2024/01/19 06:10:21;;;;;;;47.20;23.55;;;;;;;-4.11;100.00;100518.22;5037701;28;20052;-72
2024/01/19 06:12:50;;;;;;;53.25;24.98;;;;;;;-4.23;100.00;100518.88;5023260;28;20584;-72
2024/01/19 06:15:19;;;;;;;52.95;24.77;;;;;;;-4.12;100.00;100543.19;5027386;28;20053;-71
2024/01/19 06:17:48;;;;;;;49.10;22.45;;;;;;;-4.14;100.00;100546.59;4999347;28;20050;-71
2024/01/19 06:20:17;;;;;;;52.50;24.40;;;;;;;-4.18;100.00;100542.22;5020174;28;20037;-75
2024/01/19 06:22:46;;;;;;;51.40;24.58;;;;;;;-4.18;100.00;100553.44;5035388;28;20057;-71
2024/01/19 06:25:20;;;;;;;44.83;21.90;;;;;;;-4.23;100.00;100565.41;5014747;28;20060;-71
2024/01/19 06:27:49;;;;;;;45.90;22.90;;;;;;;-4.31;100.00;100567.03;5017476;28;20431;-73
2024/01/19 06:30:20;;;;;;;49.00;23.42;;;;;;;-4.29;100.00;100584.31;5020215;28;20038;-74
2024/01/19 06:32:48;;;;;;;48.33;23.50;;;;;;;-4.33;100.00;100599.75;5036149;28;20054;-72
2024/01/19 06:35:30;;;;;;;49.65;23.63;;;;;;;-4.37;100.00;100595.34;5015260;28;20071;-73
2024/01/19 06:38:06;;;;;;;50.72;24.10;;;;;;;-4.41;100.00;100602.22;5021680;28;20052;-71
2024/01/19 06:40:40;;;;;;;48.45;22.77;;;;;;;-4.57;100.00;100584.72;5023366;28;20126;-72
2024/01/19 06:43:08;;;;;;;48.72;23.13;;;;;;;-4.46;100.00;100603.84;5025879;28;20046;-72
2024/01/19 06:45:39;;;;;;;48.92;23.25;;;;;;;-4.39;100.00;100599.63;5017437;28;20474;-73
2024/01/19 06:48:08;;;;;;;;;;;;;;;-4.21;100.00;100609.41;5039594;28;20394;-73
2024/01/19 06:50:41;;;;;;;46.45;22.25;;;;;;;-4.13;100.00;100610.41;5035878;28;19939;-72
2024/01/19 06:53:11;;;;;;;49.60;23.23;;;;;;;-4.07;100.00;100611.34;5036273;28;20042;-74
2024/01/19 06:55:44;;;;;;;48.50;23.42;;;;;;;-3.98;100.00;100621.84;5015512;28;20069;-74
2024/01/19 06:58:12;;;;;;;50.78;22.88;;;;;;;-4.08;100.00;100627.72;5034490;28;20069;-70
2024/01/19 07:00:40;;;;;;;49.92;23.48;;;;;;;-4.21;100.00;100620.59;5033457;28;20095;-72
2024/01/19 07:03:08;;;;;;;51.90;25.17;;;;;;;-4.23;100.00;100632.63;5019219;28;20426;-71
2024/01/19 07:05:42;;;;;;;51.70;25.25;;;;;;;-4.25;100.00;100635.19;5015060;28;20060;-73
2024/01/19 07:08:10;;;;;;;55.40;26.77;;;;;;;-4.27;100.00;100630.88;5016794;28;20068;-72
2024/01/19 07:10:38;;;;;;;52.00;25.25;;;;;;;-4.37;100.00;100623.78;5035306;28;20113;-71
2024/01/19 07:13:09;;;;;;;51.55;25.92;;;;;;;-4.32;100.00;100640.25;5023101;28;20410;-72
2024/01/19 07:15:37;;;;;;;48.33;24.52;;;;;;;-4.41;100.00;100622.91;5030398;28;20205;-72
2024/01/19 07:18:06;;;;;;;54.45;25.80;;;;;;;-4.25;100.00;100648.13;5021168;28;20029;-71
2024/01/19 07:20:37;;;;;;;53.25;25.33;;;;;;;-4.26;100.00;100653.31;5019075;28;20045;-71
2024/01/19 07:23:11;;;;;;;58.35;27.02;;;;;;;-4.32;100.00;100642.84;5031949;28;20437;-71
2024/01/19 07:25:43;;;;;;;55.13;26.27;;;;;;;-4.23;100.00;100661.09;5021786;28;20046;-73
2024/01/19 07:28:15;;;;;;;57.58;26.88;;;;;;;-4.30;100.00;100652.38;5036005;28;20449;-71
2024/01/19 07:30:43;;;;;;;57.42;25.80;;;;;;;-4.35;100.00;100654.00;5025457;28;20077;-72
2024/01/19 07:33:12;;;;;;;50.15;25.13;;;;;;;-4.34;100.00;100665.22;5021896;28;20054;-73
2024/01/19 07:35:56;;;;;;;59.88;27.15;;;;;;;-4.32;100.00;100669.56;5022366;28;20045;-71
2024/01/19 07:38:25;;;;;;;53.83;25.08;;;;;;;-4.33;100.00;100672.13;5025205;28;20041;-72
2024/01/19 07:40:53;;;;;;;51.53;24.80;;;;;;;-4.34;100.00;100658.31;5031035;28;20079;-71
2024/01/19 07:43:23;;;;;;;53.22;25.77;;;;;;;-4.04;100.00;100678.66;5023338;28;20044;-72
2024/01/19 07:45:53;;;;;;;46.17;22.75;;;;;;;-3.86;100.00;100679.78;5014903;28;20444;-72
2024/01/19 07:48:21;;;;;;;56.03;24.50;;;;;;;-3.89;100.00;100685.78;5018743;28;20069;-71
2024/01/19 07:50:51;;;;;;;47.25;24.63;;;;;;;-3.96;100.00;100687.41;4998120;28;20045;-72
2024/01/19 07:53:21;;;;;;;50.88;25.00;;;;;;;-3.92;100.00;100684.00;5033844;28;20553;-74
2024/01/19 07:55:49;;;;;;;43.87;19.00;;;;;;;-3.80;100.00;100700.59;5017798;28;20049;-73
2024/01/19 07:58:19;;;;;;;55.35;24.50;;;;;;;-3.77;100.00;100691.16;5022103;28;20128;-72
2024/01/19 08:00:49;;;;;;;49.10;24.33;;;;;;;-3.69;100.00;100686.09;5036532;28;20617;-73
2024/01/19 08:03:26;;;;;;;51.38;25.27;;;;;;;-3.55;100.00;100713.06;5020891;28;21286;-71
2024/01/19 08:05:54;;;;;;;49.22;23.75;;;;;;;-3.57;100.00;100709.56;5031768;28;20128;-73
2024/01/19 08:08:23;;;;;;;50.97;24.20;;;;;;;-3.40;100.00;100713.28;5005492;28;20772;-72
2024/01/19 08:10:54;;;;;;;49.45;24.25;;;;;;;-3.38;100.00;100685.69;5040898;28;20057;-75
2024/01/19 08:13:31;;;;;;;47.95;23.73;;;;;;;-3.04;100.00;100706.88;5026434;28;20041;-72
2024/01/19 08:16:01;;;;;;;42.53;22.35;;;;;;;-2.83;100.00;100725.25;5014484;28;20124;-72
2024/01/19 08:18:34;;;;;;;39.97;21.38;;;;;;;-2.78;100.00;100709.78;5026839;28;20072;-73
2024/01/19 08:21:06;;;;;;;54.22;25.20;;;;;;;-2.42;100.00;100719.69;5023391;28;20046;-71
2024/01/19 08:23:34;;;;;;;45.83;23.25;;;;;;;-2.37;100.00;100712.84;5025043;28;20044;-72
2024/01/19 08:26:09;;;;;;;42.53;20.83;;;;;;;-2.42;100.00;100735.25;5015791;28;20081;-69
2024/01/19 08:28:37;;;;;;;41.70;20.75;;;;;;;-2.47;100.00;100737.78;5020278;28;20042;-74
2024/01/19 08:31:15;;;;;;;41.90;21.42;;;;;;;-2.62;100.00;100747.97;5038774;28;20075;-73
2024/01/19 08:33:43;;;;;;;42.45;21.23;;;;;;;-2.78;100.00;100733.09;5022145;28;20415;-71
2024/01/19 08:36:13;;;;;;;42.42;21.63;;;;;;;-2.69;100.00;100766.94;5035351;28;20041;-72
2024/01/19 08:38:41;;;;;;;40.65;20.73;;;;;;;-2.85;100.00;100755.50;5005705;28;20215;-70
2024/01/19 08:41:09;;;;;;;50.08;21.30;;;;;;;-2.85;100.00;100771.03;5010358;28;20157;-73
2024/01/19 08:43:38;;;;;;;43.58;21.20;;;;;;;-2.93;100.00;100780.41;5037109;28;20133;-74
2024/01/19 08:46:09;;;;;;;44.88;22.10;;;;;;;-2.93;100.00;100772.66;5018857;28;20667;-73
2024/01/19 08:48:40;;;;;;;40.10;20.83;;;;;;;-2.97;100.00;100776.03;5037249;28;20074;-73
2024/01/19 08:51:20;;;;;;;49.88;22.88;;;;;;;-2.90;100.00;100796.00;5025623;28;20064;-70
2024/01/19 08:53:51;;;;;;;50.22;22.20;;;;;;;-2.87;100.00;100794.34;5023834;28;20045;-72
2024/01/19 08:56:27;;;;;;;42.63;23.50;;;;;;;-2.81;100.00;100806.50;5025481;28;20045;-73
2024/01/19 08:58:59;;;;;;;43.00;23.85;;;;;;;-2.85;100.00;100808.19;5050320;28;20535;-72
2024/01/19 09:01:34;;;;;;;44.63;22.45;;;;;;;-2.88;100.00;100812.47;5038285;28;20068;-74
2024/01/19 09:04:07;;;;;;;43.42;22.92;;;;;;;-2.88;100.00;100812.47;5047116;28;20050;-71
2024/01/19 09:06:38;;;;;;;45.55;21.98;;;;;;;-3.05;100.00;100768.16;5016075;28;20049;-72
2024/01/19 09:09:15;;;;;;;39.95;21.40;;;;;;;-2.54;100.00;100819.84;5035101;28;20843;-70
2024/01/19 09:11:46;;;;;;;50.55;22.80;;;;;;;-2.39;100.00;100824.34;5017449;28;20053;-72
2024/01/19 09:14:20;;;;;;;41.85;21.50;;;;;;;-2.18;100.00;100823.69;5034085;28;20053;-73
2024/01/19 09:16:50;;;;;;;41.10;21.83;;;;;;;-2.02;100.00;100823.03;5028610;28;20053;-73
2024/01/19 09:19:23;;;;;;;;;;;;;;;-2.00;100.00;100823.03;5053765;28;20070;-71
2024/01/19 09:21:54;;;;;;;45.75;20.75;;;;;;;-2.11;100.00;100817.75;5051220;28;19956;-75
2024/01/19 09:24:24;;;;;;;42.55;21.27;;;;;;;-2.26;100.00;100817.56;5041510;28;20053;-74
2024/01/19 09:26:56;;;;;;;39.47;21.50;;;;;;;-2.42;100.00;100818.25;5000439;28;20118;-74
2024/01/19 09:29:24;;;;;;;46.60;22.60;;;;;;;-2.28;100.00;100832.25;5034613;28;20752;-73
2024/01/19 09:31:53;;;;;;;40.72;20.55;;;;;;;-2.23;100.00;100841.84;5055170;28;20153;-73
2024/01/19 09:34:24;;;;;;;48.30;26.38;;;;;;;-2.40;100.00;100801.84;5038259;28;20042;-72
2024/01/19 09:36:56;;;;;;;45.20;22.20;;;;;;;-2.03;100.00;100849.81;5035292;28;20102;-72
2024/01/19 09:39:25;;;;;;;38.72;21.30;;;;;;;-2.20;100.00;100833.19;5022823;28;20053;-73
2024/01/19 09:42:05;;;;;;;46.03;21.80;;;;;;;-2.20;100.00;100833.19;5033230;28;20087;-72
2024/01/19 09:44:38;;;;;;;45.55;21.30;;;;;;;-2.00;100.00;100865.44;5033319;28;20072;-71
2024/01/19 09:47:25;;;;;;;44.08;23.42;;;;;;;-2.03;100.00;100861.91;5027426;28;20058;-70
2024/01/19 09:50:05;;;;;;;41.40;21.23;;;;;;;-1.64;100.00;100890.06;5039014;28;20057;-73
2024/01/19 09:52:43;;;;;;;41.75;21.98;;;;;;;-1.46;100.00;100895.44;5040096;28;20041;-73
2024/01/19 09:55:12;;;;;;;41.03;22.17;;;;;;;-1.35;100.00;100893.81;5041064;28;20048;-73
2024/01/19 09:57:46;;;;;;;46.13;23.35;;;;;;;-1.14;100.00;100898.31;5016339;28;20057;-73
2024/01/19 10:00:20;;;;;;;41.72;21.40;;;;;;;-1.04;100.00;100875.88;5025788;28;20583;-72
2024/01/19 10:02:49;;;;;;;38.63;20.92;;;;;;;-0.66;100.00;100905.63;5036613;28;20501;-72
2024/01/19 10:05:20;;;;;;;43.67;22.45;;;;;;;-0.57;100.00;100912.59;5039669;28;20038;-71
2024/01/19 10:07:53;;;;;;;39.28;21.05;;;;;;;-0.51;100.00;100908.31;5027116;28;20060;-73
2024/01/19 10:10:28;;;;;;;41.97;21.13;;;;;;;-0.55;100.00;100896.16;5026212;28;20552;-73
2024/01/19 10:12:58;;;;;;;42.53;21.83;;;;;;;-0.51;100.00;100912.66;5038982;28;20064;-73
2024/01/19 10:15:27;;;;;;;45.13;23.10;;;;;;;-0.59;100.00;100914.31;5038628;28;20046;-75
2024/01/19 10:17:57;;;;;;;41.70;21.70;;;;;;;-0.59;100.00;100919.53;5021317;28;20045;-74
2024/01/19 10:20:38;;;;;;;38.22;21.10;;;;;;;-0.60;100.00;100921.25;5016143;28;20042;-74
2024/01/19 10:23:24;;;;;;;30.93;16.53;;;;;;;-0.52;100.00;100929.13;5044154;28;20673;-74
2024/01/19 10:26:13;;;;;;;44.75;20.88;;;;;;;-0.49;100.00;100930.03;5032303;28;20046;-73
2024/01/19 10:28:45;;;;;;;37.72;20.60;;;;;;;-0.37;100.00;100930.09;5023441;28;20053;-73
2024/01/19 10:31:40;;;;;;;38.95;20.05;;;;;;;-0.21;100.00;100949.25;5035890;28;20050;-72
2024/01/19 10:34:18;;;;;;;37.20;21.33;;;;;;;-0.15;100.00;100944.06;5022486;28;20065;-71
2024/01/19 10:36:52;;;;;;;40.88;20.95;;;;;;;-0.32;100.00;100952.66;5030339;28;20077;-71
2024/01/19 10:39:25;;;;;;;40.25;20.98;;;;;;;-0.25;100.00;100954.44;5037701;28;20533;-71
2024/01/19 10:42:07;;;;;;;;;;;;;;;-0.15;100.00;100959.69;5035833;28;20049;-72
2024/01/19 10:44:36;;;;;;;38.08;20.13;;;;;;;0.01;100.00;100965.84;5039718;28;19925;-72
2024/01/19 10:47:07;;;;;;;41.15;20.50;;;;;;;0.11;100.00;100969.38;5026556;28;20049;-72
2024/01/19 10:49:36;;;;;;;36.35;19.13;;;;;;;0.14;100.00;100964.19;5046057;28;20052;-73
2024/01/19 10:52:10;;;;;;;37.30;21.42;;;;;;;0.08;100.00;100966.75;5021228;28;20064;-72
2024/01/19 10:54:41;;;;;;;40.00;19.98;;;;;;;-0.10;100.00;100964.94;5031687;28;20052;-73
2024/01/19 10:57:10;;;;;;;36.45;19.30;;;;;;;-0.05;100.00;100961.50;5042250;28;20582;-74
2024/01/19 10:59:38;;;;;;;37.80;18.88;;;;;;;0.00;100.00;100964.13;5034271;28;20052;-75
2024/01/19 11:02:07;;;;;;;34.92;18.75;;;;;;;0.09;100.00;100964.16;5033758;28;20161;-75
2024/01/19 11:04:43;;;;;;;37.60;20.33;;;;;;;0.10;100.00;100949.41;5025379;28;20044;-76
2024/01/19 11:07:14;;;;;;;37.50;20.27;;;;;;;0.18;100.00;100953.78;5017498;28;20046;-74
2024/01/19 11:09:43;;;;;;;;;;;;;;;0.20;100.00;100965.06;5029287;28;20053;-75
2024/01/19 11:12:18;;;;;;;36.17;18.48;;;;;;;0.13;100.00;100958.13;5036353;28;19921;-74
2024/01/19 11:14:48;;;;;;;36.85;18.95;;;;;;;0.08;100.00;100961.56;5041023;28;20175;-75
2024/01/19 11:17:18;;;;;;;42.70;21.17;;;;;;;0.10;100.00;100955.50;5018136;28;20509;-72
2024/01/19 11:19:47;;;;;;;35.00;20.58;;;;;;;0.05;100.00;100969.34;5023047;28;20046;-71